Time;durP1;ratioP1;P1;durP2;ratioP2;P2;SDS_P1;SDS_P2;PMS_P1;PMS_P2;Temp;Humidity;BMP_temperature;BMP_pressure;BME280_temperature;BME280_humidity;BME280_pressure;Samples;Min_cycle;Max_cycle;Signal;HPM_P1;HPM_P2
2022/08/29 00:00:22;;;;;;;13.38;11.48;;;;;;;15.01;100.00;96479.41;5084084;28;20020;-77
2022/08/29 00:02:51;;;;;;;23.90;12.05;;;;;;;14.84;100.00;96481.38;5081873;28;20036;-78
2022/08/29 00:05:19;;;;;;;14.70;11.88;;;;;;;14.69;100.00;96485.81;5084231;28;20519;-78
2022/08/29 00:07:44;;;;;;;16.50;12.18;;;;;;;14.67;100.00;96491.28;5065295;28;20043;-77
2022/08/29 00:10:10;;;;;;;16.52;11.68;;;;;;;14.75;100.00;96488.56;5083349;28;20421;-78
2022/08/29 00:12:37;;;;;;;16.08;12.18;;;;;;;14.76;100.00;96489.41;5080349;28;20119;-77
2022/08/29 00:15:06;;;;;;;16.02;12.93;;;;;;;14.85;100.00;96485.66;5084419;28;20028;-77
2022/08/29 00:17:32;;;;;;;13.82;11.73;;;;;;;14.79;100.00;96476.63;5079299;28;20039;-78
2022/08/29 00:19:58;;;;;;;14.50;11.30;;;;;;;14.73;100.00;96480.00;5086761;28;20085;-77
2022/08/29 00:22:23;;;;;;;13.02;11.10;;;;;;;14.77;100.00;96477.81;5078166;28;20077;-78
2022/08/29 00:24:49;;;;;;;14.48;10.70;;;;;;;14.73;100.00;96482.66;5081150;28;20098;-77
2022/08/29 00:27:15;;;;;;;15.05;11.60;;;;;;;14.72;100.00;96480.16;5082020;28;20119;-77
2022/08/29 00:29:41;;;;;;;12.73;11.40;;;;;;;14.73;100.00;96474.69;5081898;28;20062;-77
2022/08/29 00:32:06;;;;;;;14.25;11.25;;;;;;;14.63;100.00;96468.84;5085981;28;20107;-78
2022/08/29 00:34:32;;;;;;;13.75;10.85;;;;;;;14.61;100.00;96474.28;5083430;28;20525;-77
2022/08/29 00:36:58;;;;;;;14.77;11.40;;;;;;;14.56;100.00;96476.66;5082743;28;20202;-77
2022/08/29 00:39:24;;;;;;;12.80;11.05;;;;;;;14.62;100.00;96477.78;5077781;28;20035;-77
2022/08/29 00:41:50;;;;;;;15.07;11.48;;;;;;;14.64;100.00;96488.19;5082537;28;20550;-77
2022/08/29 00:44:16;;;;;;;20.80;10.77;;;;;;;14.66;100.00;96481.72;5081877;28;20055;-77
2022/08/29 00:46:42;;;;;;;11.93;10.02;;;;;;;14.73;100.00;96484.47;5078079;28;20429;-77
2022/08/29 00:49:25;;;;;;;15.20;12.00;;;;;;;14.60;100.00;96485.06;5085703;28;20107;-77
2022/08/29 00:51:53;;;;;;;16.92;11.07;;;;;;;14.50;100.00;96490.59;5095716;28;20040;-77
2022/08/29 00:54:21;;;;;;;15.48;11.13;;;;;;;14.53;100.00;96481.50;5082922;28;20033;-77
2022/08/29 00:56:46;;;;;;;14.60;10.85;;;;;;;14.56;100.00;96478.50;5082261;28;20040;-77
2022/08/29 00:59:23;;;;;;;14.05;11.65;;;;;;;14.57;100.00;96483.59;5082624;28;20062;-77
2022/08/29 01:01:48;;;;;;;12.20;10.35;;;;;;;14.61;100.00;96484.88;5083227;28;20162;-77
2022/08/29 01:04:14;;;;;;;13.20;9.85;;;;;;;14.59;100.00;96488.72;5088117;28;20107;-77
2022/08/29 01:06:40;;;;;;;15.60;10.52;;;;;;;14.45;100.00;96494.75;5074114;28;20492;-77
2022/08/29 01:09:08;;;;;;;13.13;10.73;;;;;;;14.36;100.00;96494.00;5085693;28;20040;-77
2022/08/29 01:14:21;;;;;;;13.68;10.32;;;;;;;14.27;100.00;96495.03;5086473;28;20043;-77
2022/08/29 01:16:51;;;;;;;12.00;9.93;;;;;;;14.29;100.00;96496.53;5076795;28;20039;-77
2022/08/29 01:19:19;;;;;;;13.05;11.40;;;;;;;14.15;100.00;96500.75;5101661;28;20114;-77
2022/08/29 01:21:58;;;;;;;14.43;11.93;;;;;;;14.19;100.00;96500.41;5072314;28;20081;-77
2022/08/29 01:24:35;;;;;;;15.68;11.85;;;;;;;14.11;100.00;96495.97;5084587;28;20114;-77
2022/08/29 01:27:02;;;;;;;15.43;12.20;;;;;;;14.19;100.00;96500.41;5069685;28;20028;-77
2022/08/29 01:29:27;;;;;;;16.17;11.23;;;;;;;14.05;100.00;96508.09;5067889;28;20024;-77
2022/08/29 01:31:54;;;;;;;16.48;11.93;;;;;;;14.03;100.00;96498.66;5087245;28;20028;-77
2022/08/29 01:34:19;;;;;;;14.15;11.18;;;;;;;14.13;100.00;96501.91;5086776;28;20098;-77
2022/08/29 01:36:52;;;;;;;14.45;11.57;;;;;;;14.14;100.00;96492.97;5088537;28;20028;-77
2022/08/29 01:39:21;;;;;;;16.27;11.65;;;;;;;14.10;100.00;96489.03;5086398;28;20025;-77
2022/08/29 01:41:47;;;;;;;15.48;11.80;;;;;;;14.12;100.00;96493.16;5087053;28;20024;-77
2022/08/29 01:44:18;;;;;;;13.98;10.98;;;;;;;14.14;100.00;96492.97;5087323;28;20428;-77
2022/08/29 01:46:45;;;;;;;15.18;11.68;;;;;;;14.13;100.00;96492.16;5085150;28;20024;-77
2022/08/29 01:49:12;;;;;;;14.83;11.73;;;;;;;14.12;100.00;96493.16;5088158;28;20035;-77
2022/08/29 01:51:40;;;;;;;14.20;12.30;;;;;;;14.06;100.00;96496.50;5084835;28;20033;-77
2022/08/29 01:54:07;;;;;;;15.60;11.85;;;;;;;14.04;100.00;96495.03;5100691;28;20495;-77
2022/08/29 01:56:40;;;;;;;13.68;12.27;;;;;;;14.02;100.00;96491.75;5068196;28;20050;-77
2022/08/29 01:59:09;;;;;;;13.73;11.43;;;;;;;13.97;100.00;96494.06;5085246;28;20052;-77
2022/08/29 02:01:38;;;;;;;17.47;13.13;;;;;;;13.96;100.00;96495.91;5062511;28;20020;-77
2022/08/29 02:04:05;;;;;;;15.60;13.13;;;;;;;14.02;100.00;96499.69;5091941;28;20435;-77
2022/08/29 02:06:31;;;;;;;14.53;12.93;;;;;;;14.01;100.00;96492.72;5087406;28;20039;-77
2022/08/29 02:08:57;;;;;;;18.50;13.13;;;;;;;13.92;100.00;96491.97;5090856;28;20031;-77
2022/08/29 02:11:23;;;;;;;14.47;11.37;;;;;;;13.88;100.00;96491.50;5086252;28;20039;-77
2022/08/29 02:13:56;;;;;;;16.73;12.17;;;;;;;13.93;100.00;96493.59;5087134;28;20461;-77
2022/08/29 02:16:23;;;;;;;15.60;12.17;;;;;;;13.93;100.00;96492.78;5080115;28;20110;-75
2022/08/29 02:18:49;;;;;;;14.70;11.97;;;;;;;13.88;100.00;96491.50;5086564;28;20032;-75
2022/08/29 02:21:18;;;;;;;12.97;11.13;;;;;;;13.80;100.00;96499.44;5087357;28;20031;-76
2022/08/29 02:23:45;;;;;;;14.87;12.57;;;;;;;13.72;100.00;96499.50;5086852;28;20028;-76
2022/08/29 02:26:11;;;;;;;14.77;12.33;;;;;;;13.67;100.00;96496.53;5068500;28;20028;-75
2022/08/29 02:28:39;;;;;;;15.30;12.73;;;;;;;13.68;100.00;96495.53;5090400;28;20043;-75
2022/08/29 02:31:06;;;;;;;15.53;12.47;;;;;;;13.63;100.00;96490.75;5088572;28;20039;-76
2022/08/29 02:33:32;;;;;;;16.87;12.67;;;;;;;13.62;100.00;96501.53;5088820;28;20044;-76
2022/08/29 02:35:58;;;;;;;16.07;11.77;;;;;;;13.62;100.00;96499.69;5088880;28;20028;-76
2022/08/29 02:38:24;;;;;;;17.80;11.90;;;;;;;13.68;100.00;96498.16;5089747;28;20078;-76
2022/08/29 02:40:50;;;;;;;13.13;11.57;;;;;;;13.73;100.00;96493.19;5088244;28;20024;-76
2022/08/29 02:43:18;;;;;;;15.85;11.95;;;;;;;13.61;100.00;96497.22;5083118;28;20028;-75
2022/08/29 02:45:44;;;;;;;17.38;12.52;;;;;;;13.64;100.00;96499.50;5087956;28;20032;-75
2022/08/29 02:48:11;;;;;;;14.43;11.20;;;;;;;13.68;100.00;96506.94;5086570;28;20107;-75
2022/08/29 02:50:46;;;;;;;15.27;12.43;;;;;;;13.72;100.00;96501.31;5086855;28;20086;-75
2022/08/29 02:53:13;;;;;;;14.57;11.87;;;;;;;13.67;100.00;96501.81;5083651;28;20098;-75
2022/08/29 02:55:39;;;;;;;14.70;11.32;;;;;;;13.66;100.00;96502.81;5085548;28;20035;-76
2022/08/29 02:58:05;;;;;;;12.27;10.97;;;;;;;13.55;100.00;96503.19;5086222;28;20032;-75
2022/08/29 03:00:32;;;;;;;14.70;11.13;;;;;;;13.48;100.00;96497.78;5081178;28;20048;-75
2022/08/29 03:02:59;;;;;;;11.87;10.47;;;;;;;13.56;100.00;96497.72;5082653;28;20032;-75
2022/08/29 03:05:27;;;;;;;13.33;11.27;;;;;;;13.59;100.00;96494.75;5084788;28;20036;-76
2022/08/29 03:07:55;;;;;;;12.60;11.20;;;;;;;13.61;100.00;96490.09;5087694;28;20103;-75
2022/08/29 03:10:21;;;;;;;15.20;12.37;;;;;;;13.42;100.00;96483.44;5080572;28;20078;-76
2022/08/29 03:12:48;;;;;;;14.13;11.33;;;;;;;13.28;100.00;96492.06;5084334;28;20107;-76
2022/08/29 03:15:14;;;;;;;17.93;11.63;;;;;;;13.23;100.00;96499.63;5085401;28;20081;-76
2022/08/29 03:17:40;;;;;;;14.17;11.63;;;;;;;13.23;100.00;96507.53;5082308;28;20059;-75
2022/08/29 03:20:07;;;;;;;13.00;11.00;;;;;;;13.25;100.00;96500.31;5086327;28;20051;-75
2022/08/29 03:22:35;;;;;;;12.73;10.63;;;;;;;13.16;100.00;96506.56;5083449;28;20032;-76
2022/08/29 03:25:02;;;;;;;15.20;10.77;;;;;;;13.14;100.00;96503.28;5079715;28;20027;-76
2022/08/29 03:27:29;;;;;;;14.50;11.70;;;;;;;13.11;100.00;96496.53;5078212;28;20047;-75
2022/08/29 03:29:55;;;;;;;13.67;11.27;;;;;;;13.05;100.00;96499.84;5083444;28;20036;-76
2022/08/29 03:32:20;;;;;;;14.60;11.70;;;;;;;13.17;100.00;96489.72;5081129;28;20039;-76
2022/08/29 03:34:46;;;;;;;14.40;11.30;;;;;;;13.16;100.00;96496.84;5083661;28;20036;-76
2022/08/29 03:37:12;;;;;;;14.17;12.67;;;;;;;13.16;100.00;96503.94;5081930;28;20106;-75
2022/08/29 03:39:37;;;;;;;30.27;15.17;;;;;;;13.02;100.00;96502.00;5067352;28;20028;-76
2022/08/29 03:42:05;;;;;;;13.87;12.27;;;;;;;12.99;100.00;96505.78;5080719;28;20111;-77
2022/08/29 03:44:33;;;;;;;17.80;13.33;;;;;;;12.95;100.00;96509.75;5091381;28;20028;-76
2022/08/29 03:46:58;;;;;;;15.37;13.33;;;;;;;12.98;100.00;96510.25;5085003;28;20103;-75
2022/08/29 03:49:24;;;;;;;22.00;13.53;;;;;;;13.02;100.00;96512.56;5082403;28;20423;-76
2022/08/29 03:51:50;;;;;;;18.23;13.50;;;;;;;13.05;100.00;96514.84;5086597;28;20024;-76
2022/08/29 03:54:16;;;;;;;17.10;13.93;;;;;;;13.11;100.00;96520.28;5084977;28;20027;-76
2022/08/29 03:56:41;;;;;;;15.90;13.40;;;;;;;13.18;100.00;96515.16;5082623;28;20056;-76
2022/08/29 03:59:07;;;;;;;16.67;14.30;;;;;;;13.15;100.00;96507.56;5085050;28;20036;-76
2022/08/29 04:01:33;;;;;;;21.57;14.23;;;;;;;13.05;100.00;96509.59;5086457;28;20028;-76
2022/08/29 04:03:59;;;;;;;18.77;14.47;;;;;;;13.01;100.00;96511.72;5086316;28;20110;-76
2022/08/29 04:06:28;;;;;;;15.63;13.07;;;;;;;13.06;100.00;96512.03;5081990;28;20032;-76
2022/08/29 04:08:55;;;;;;;15.23;13.63;;;;;;;13.10;100.00;96512.53;5084948;28;20097;-76
2022/08/29 04:11:23;;;;;;;16.73;14.93;;;;;;;13.11;100.00;96519.44;5081723;28;20036;-76
2022/08/29 04:13:50;;;;;;;15.70;13.90;;;;;;;13.08;100.00;96514.53;5083682;28;20111;-76
2022/08/29 04:16:20;;;;;;;19.57;13.40;;;;;;;13.04;100.00;96519.28;5082860;28;20656;-76
2022/08/29 04:18:46;;;;;;;15.97;12.60;;;;;;;13.00;100.00;96511.88;5061657;28;20239;-76
2022/08/29 04:21:12;;;;;;;17.17;13.93;;;;;;;12.89;100.00;96515.69;5084055;28;20579;-77
2022/08/29 04:23:38;;;;;;;14.77;13.07;;;;;;;12.92;100.00;96518.81;5082026;28;20066;-76
2022/08/29 04:26:11;;;;;;;15.73;13.17;;;;;;;12.83;100.00;96521.63;5085522;28;20055;-76
2022/08/29 04:28:37;;;;;;;17.45;13.07;;;;;;;12.87;100.00;96525.59;5082409;28;20163;-76
2022/08/29 04:31:02;;;;;;;15.93;13.13;;;;;;;12.91;100.00;96529.53;5084488;28;20107;-75
2022/08/29 04:33:28;;;;;;;16.63;13.13;;;;;;;12.85;100.00;96531.03;5083303;28;20043;-76
2022/08/29 04:35:54;;;;;;;16.37;12.67;;;;;;;12.80;100.00;96529.88;5081908;28;20042;-76
2022/08/29 04:38:20;;;;;;;14.17;12.23;;;;;;;12.85;100.00;96533.69;5084148;28;20027;-76
2022/08/29 04:40:45;;;;;;;17.60;12.63;;;;;;;12.85;100.00;96531.03;5084268;28;20036;-76
2022/08/29 04:43:11;;;;;;;15.37;12.67;;;;;;;12.85;100.00;96531.03;5086074;28;20039;-76
2022/08/29 04:45:40;;;;;;;16.10;12.07;;;;;;;12.87;100.00;96533.50;5078167;28;21246;-76
2022/08/29 04:48:07;;;;;;;14.63;11.90;;;;;;;12.85;100.00;96541.59;5084562;28;20023;-77
2022/08/29 04:50:33;;;;;;;15.93;13.37;;;;;;;12.76;100.00;96537.31;5080814;28;20033;-76
2022/08/29 04:53:00;;;;;;;16.40;13.20;;;;;;;12.72;100.00;96538.63;5081193;28;20455;-76
2022/08/29 04:55:26;;;;;;;18.17;13.30;;;;;;;12.77;100.00;96544.22;5065891;28;20038;-76
2022/08/29 04:57:53;;;;;;;16.47;12.43;;;;;;;12.89;100.00;96536.81;5065466;28;20028;-75
2022/08/29 05:00:23;;;;;;;13.20;11.20;;;;;;;12.95;100.00;96542.25;5082059;28;20028;-76
2022/08/29 05:02:49;;;;;;;15.60;12.70;;;;;;;12.94;100.00;96540.63;5082359;28;20109;-76
2022/08/29 05:05:15;;;;;;;17.00;13.33;;;;;;;12.82;100.00;96543.75;5080164;28;20054;-76
2022/08/29 05:07:41;;;;;;;16.83;13.03;;;;;;;12.89;100.00;96542.91;5082793;28;20024;-76
2022/08/29 05:10:10;;;;;;;15.37;12.23;;;;;;;12.92;100.00;96547.03;5082718;28;20050;-76
2022/08/29 05:12:37;;;;;;;18.80;13.13;;;;;;;12.80;100.00;96546.53;5079537;28;20128;-77
2022/08/29 05:15:04;;;;;;;16.67;13.40;;;;;;;12.83;100.00;96551.50;5079993;28;20064;-76
2022/08/29 05:17:30;;;;;;;15.13;12.63;;;;;;;12.87;100.00;96549.34;5079843;28;20029;-76
2022/08/29 05:19:55;;;;;;;18.13;13.43;;;;;;;12.90;100.00;96539.28;5082942;28;20048;-76
2022/08/29 05:22:22;;;;;;;19.03;14.80;;;;;;;13.09;100.00;96537.28;5083433;28;20028;-76
2022/08/29 05:24:49;;;;;;;17.73;13.30;;;;;;;13.33;100.00;96531.97;5084828;28;20038;-76
2022/08/29 05:27:18;;;;;;;14.00;12.23;;;;;;;13.53;100.00;96527.13;5084289;28;20091;-75
2022/08/29 05:29:46;;;;;;;15.17;12.60;;;;;;;13.84;100.00;96526.34;5082886;28;20036;-76
2022/08/29 05:32:17;;;;;;;16.63;12.87;;;;;;;13.77;100.00;96520.94;5083389;28;20032;-76
2022/08/29 05:34:44;;;;;;;14.30;11.77;;;;;;;14.02;100.00;96518.19;5083288;28;20063;-77
2022/08/29 05:37:13;;;;;;;13.03;11.43;;;;;;;14.32;100.00;96514.69;5081804;28;20055;-76
2022/08/29 05:39:39;;;;;;;13.67;12.13;;;;;;;14.62;100.00;96504.25;5085366;28;20096;-76
2022/08/29 05:42:06;;;;;;;16.17;12.50;;;;;;;14.66;100.00;96504.72;5082307;28;20035;-76
2022/08/29 05:44:33;;;;;;;15.45;12.07;;;;;;;14.93;100.00;96508.63;5087489;28;20085;-76
2022/08/29 05:46:59;;;;;;;15.00;11.52;;;;;;;15.04;100.00;96503.69;5083008;28;20081;-76
2022/08/29 05:49:26;;;;;;;13.38;10.93;;;;;;;15.26;100.00;96501.19;5086662;28;20035;-76
2022/08/29 05:51:53;;;;;;;12.85;10.95;;;;;;;15.43;100.00;96509.78;5088589;28;20028;-76
2022/08/29 05:54:20;;;;;;;14.27;11.00;;;;;;;15.74;100.00;96510.41;5083276;28;20024;-77
2022/08/29 05:56:46;;;;;;;13.50;10.55;;;;;;;15.71;100.00;96516.09;5088355;28;20085;-76
2022/08/29 05:59:12;;;;;;;12.02;10.73;;;;;;;15.70;100.00;96509.16;5089499;28;20016;-76
2022/08/29 06:01:39;;;;;;;13.05;10.90;;;;;;;15.71;100.00;96513.44;5084415;28;20044;-77
2022/08/29 06:04:05;;;;;;;16.52;10.95;;;;;;;15.90;100.00;96509.41;5090234;28;20123;-77
2022/08/29 06:06:30;;;;;;;13.95;10.05;;;;;;;16.49;100.00;96508.38;5089065;28;20099;-76
2022/08/29 06:08:58;;;;;;;12.68;10.63;;;;;;;16.56;100.00;96511.09;5087883;28;20043;-76
2022/08/29 06:11:29;;;;;;;15.07;11.65;;;;;;;16.50;100.00;96516.19;5088853;28;20031;-77
2022/08/29 06:13:55;;;;;;;14.88;10.52;;;;;;;16.83;100.00;96504.22;5090150;28;20863;-77
2022/08/29 06:16:22;;;;;;;15.18;10.25;;;;;;;17.09;100.00;96507.09;5089007;28;20110;-77
2022/08/29 06:18:49;;;;;;;12.40;9.65;;;;;;;16.68;100.00;96514.91;5070141;28;20271;-76
2022/08/29 06:21:15;;;;;;;13.00;9.68;;;;;;;17.22;100.00;96510.88;5087328;28;20027;-77
2022/08/29 06:23:42;;;;;;;11.95;9.23;;;;;;;16.61;100.00;96524.66;5085364;28;20028;-76
2022/08/29 06:26:10;;;;;;;15.52;10.07;;;;;;;17.09;100.00;96524.88;5084565;28;20488;-77
2022/08/29 06:28:40;;;;;;;12.23;8.65;;;;;;;17.55;100.00;96514.56;5095616;28;20042;-76
2022/08/29 06:31:21;;;;;;;13.07;9.60;;;;;;;17.83;100.00;96513.69;5076100;28;20043;-76
2022/08/29 06:33:50;;;;;;;12.85;9.48;;;;;;;18.12;100.00;96515.25;5081202;28;20451;-77
2022/08/29 06:36:16;;;;;;;14.38;9.50;;;;;;;18.36;100.00;96508.56;5074538;28;20024;-77
2022/08/29 06:38:42;;;;;;;16.80;9.88;;;;;;;19.06;100.00;96514.41;5082070;28;20035;-76
2022/08/29 06:41:12;;;;;;;11.63;9.73;;;;;;;19.26;100.00;96512.53;5082349;28;20074;-77
2022/08/29 06:43:39;;;;;;;13.00;9.80;;;;;;;18.38;100.00;96517.19;5085385;28;20035;-76
2022/08/29 06:46:05;;;;;;;14.88;10.57;;;;;;;19.01;100.00;96512.38;5083628;28;20439;-76
2022/08/29 06:48:31;;;;;;;14.18;10.70;;;;;;;19.42;100.00;96507.81;5066790;28;20089;-76
2022/08/29 06:51:01;;;;;;;13.10;9.80;;;;;;;19.37;100.00;96510.28;5082539;28;20024;-77
2022/08/29 06:53:27;;;;;;;14.25;10.80;;;;;;;19.03;100.00;96515.63;5084450;28;20046;-76
2022/08/29 06:55:54;;;;;;;12.95;9.75;;;;;;;20.11;100.00;96514.38;5074004;28;20126;-77
2022/08/29 06:58:20;;;;;;;14.63;9.63;;;;;;;20.97;100.00;96511.22;5084273;28;20039;-76
2022/08/29 07:00:48;;;;;;;11.35;9.15;;;;;;;21.34;100.00;96509.50;5084405;28;20028;-77
2022/08/29 07:03:14;;;;;;;13.30;10.30;;;;;;;20.68;100.00;96512.66;5078147;28;20039;-76
2022/08/29 07:05:39;;;;;;;12.05;9.30;;;;;;;20.91;100.00;96520.91;5084651;28;20028;-76
2022/08/29 07:08:05;;;;;;;11.80;9.50;;;;;;;21.53;100.00;96504.16;5088468;28;20073;-76
2022/08/29 07:10:31;;;;;;;12.73;10.25;;;;;;;20.02;100.00;96527.19;5070374;28;20177;-76
2022/08/29 07:12:57;;;;;;;12.27;9.52;;;;;;;20.75;100.00;96516.09;5086745;28;20138;-76
2022/08/29 07:15:23;;;;;;;14.80;10.10;;;;;;;20.18;100.00;96531.19;5086765;28;20040;-77
2022/08/29 07:17:49;;;;;;;13.15;9.50;;;;;;;21.20;100.00;96510.63;5087796;28;20040;-76
2022/08/29 07:20:15;;;;;;;10.95;8.40;;;;;;;21.53;100.00;96509.50;5086644;28;20496;-76
2022/08/29 07:22:42;;;;;;;14.27;8.95;;;;;;;21.82;100.00;96511.44;5088209;28;20027;-77
2022/08/29 07:25:09;;;;;;;14.55;9.13;;;;;;;22.70;100.00;96512.84;5087080;28;20028;-77
2022/08/29 07:27:35;;;;;;;14.27;9.77;;;;;;;23.00;100.00;96517.34;5087626;28;20063;-77
2022/08/29 07:30:03;;;;;;;16.35;9.07;;;;;;;22.33;100.00;96522.81;5081898;28;20051;-76
2022/08/29 07:32:28;;;;;;;12.88;9.02;;;;;;;22.58;100.00;96522.69;5084659;28;20036;-76
2022/08/29 07:34:54;;;;;;;12.25;7.82;;;;;;;22.90;100.00;96514.38;5078613;28;20130;-77
2022/08/29 07:37:20;;;;;;;10.88;7.55;;;;;;;23.35;100.00;96519.25;5100966;28;20031;-77
2022/08/29 07:39:46;;;;;;;12.25;9.60;;;;;;;23.29;100.00;96512.94;5086803;28;20067;-77
2022/08/29 07:42:11;;;;;;;15.07;8.90;;;;;;;23.62;100.00;96515.03;5087500;28;20061;-77
2022/08/29 07:44:37;;;;;;;12.48;8.50;;;;;;;23.25;100.00;96522.50;5086629;28;20032;-77
2022/08/29 07:47:03;;;;;;;10.38;7.78;;;;;;;22.79;100.00;96519.47;5086254;28;20039;-77
2022/08/29 07:49:31;;;;;;;9.82;7.55;;;;;;;23.99;100.00;96517.47;5067434;28;20120;-77
2022/08/29 07:51:57;;;;;;;11.85;7.93;;;;;;;23.86;100.00;96515.84;5082327;28;20051;-77
2022/08/29 07:54:23;;;;;;;13.70;7.63;;;;;;;25.07;100.00;96517.59;5083785;28;20020;-77
2022/08/29 07:56:50;;;;;;;9.73;7.13;;;;;;;25.62;96.10;96514.19;5083932;28;20073;-78
2022/08/29 07:59:18;;;;;;;9.77;7.07;;;;;;;25.22;98.37;96514.34;5083008;28;20035;-77
2022/08/29 08:01:44;;;;;;;12.13;7.57;;;;;;;26.02;90.53;96505.00;5084119;28;20024;-77
2022/08/29 08:04:10;;;;;;;8.45;6.47;;;;;;;26.20;90.51;96512.78;5082420;28;20400;-77
2022/08/29 08:06:39;;;;;;;9.70;6.68;;;;;;;25.80;91.95;96507.72;5085620;28;20044;-78
2022/08/29 08:09:06;;;;;;;13.20;7.20;;;;;;;25.70;91.80;96512.94;5085505;28;20040;-77
2022/08/29 08:11:33;;;;;;;9.60;6.82;;;;;;;25.97;90.79;96513.06;5081327;28;20047;-78
2022/08/29 08:13:59;;;;;;;11.25;7.47;;;;;;;25.52;90.32;96517.53;5085506;28;20396;-78
2022/08/29 08:16:29;;;;;;;11.27;7.05;;;;;;;24.72;93.55;96526.69;5082310;28;20504;-77
2022/08/29 08:18:55;;;;;;;10.48;6.32;;;;;;;25.48;92.16;96519.06;5082223;28;20534;-77
2022/08/29 08:21:22;;;;;;;11.25;6.30;;;;;;;26.95;80.45;96508.47;5086277;28;20054;-76
2022/08/29 08:23:48;;;;;;;11.90;6.22;;;;;;;26.25;87.71;96515.53;5085877;28;20039;-76
2022/08/29 08:26:14;;;;;;;8.82;5.53;;;;;;;28.43;73.54;96516.72;5078147;28;20358;-77
2022/08/29 08:28:41;;;;;;;9.45;6.50;;;;;;;28.04;71.59;96513.56;5084159;28;20028;-77
2022/08/29 08:31:09;;;;;;;9.43;6.32;;;;;;;27.72;69.63;96517.16;5081244;28;20523;-77
2022/08/29 08:33:39;;;;;;;9.18;5.50;;;;;;;27.88;61.38;96520.78;5078433;28;20028;-76
2022/08/29 08:36:32;;;;;;;8.88;5.70;;;;;;;28.00;58.78;96523.25;5083074;28;20972;-76
2022/08/29 08:38:58;;;;;;;9.05;5.20;;;;;;;28.74;55.41;96517.63;5081406;28;20043;-77
2022/08/29 08:41:56;;;;;;;11.52;6.00;;;;;;;27.92;63.94;96517.28;5082095;28;20024;-77
2022/08/29 08:44:22;;;;;;;8.75;5.72;;;;;;;28.88;61.66;96521.41;5069767;28;20386;-77
2022/08/29 08:46:53;;;;;;;9.18;5.53;;;;;;;27.59;67.34;96521.13;5084844;28;20044;-77
2022/08/29 08:49:39;;;;;;;9.35;5.68;;;;;;;28.08;61.69;96520.06;5084573;28;20119;-77
2022/08/29 08:52:14;;;;;;;11.60;5.45;;;;;;;27.64;63.16;96517.66;5085244;28;20078;-77
2022/08/29 08:54:50;;;;;;;8.32;5.15;;;;;;;27.78;63.77;96526.13;5080794;28;20115;-77
2022/08/29 08:57:17;;;;;;;7.78;5.30;;;;;;;27.52;60.75;96511.63;5082003;28;21310;-76
2022/08/29 08:59:45;;;;;;;8.20;5.38;;;;;;;27.20;68.01;96515.19;5083883;28;20024;-76
2022/08/29 09:02:17;;;;;;;8.77;5.20;;;;;;;28.63;58.73;96511.34;5086491;28;20017;-76
2022/08/29 09:05:15;;;;;;;8.82;5.32;;;;;;;28.03;59.55;96522.75;5078884;28;20028;-76
2022/08/29 09:07:58;;;;;;;10.70;6.00;;;;;;;29.22;55.58;96520.91;5078951;28;21179;-76
2022/08/29 09:10:56;;;;;;;;;;;;;;;29.74;51.86;96517.06;5075330;28;20029;-76
2022/08/29 09:13:31;;;;;;;9.68;5.72;;;;;;;29.18;56.16;96521.75;5064356;28;19915;-77
2022/08/29 09:16:00;;;;;;;9.35;5.70;;;;;;;29.53;53.74;96519.00;5071756;28;20081;-77
2022/08/29 09:18:39;;;;;;;8.25;4.78;;;;;;;30.08;47.13;96524.59;5073046;28;20806;-78
2022/08/29 09:21:14;;;;;;;7.55;4.65;;;;;;;29.21;47.16;96527.44;5080891;28;21322;-77
2022/08/29 09:23:54;;;;;;;7.75;4.00;;;;;;;29.58;46.28;96526.31;5080955;28;20546;-77
2022/08/29 09:26:22;;;;;;;7.03;4.07;;;;;;;29.49;44.76;96533.38;5098045;28;20040;-77
2022/08/29 09:28:48;;;;;;;7.80;4.88;;;;;;;28.92;47.65;96529.00;5081679;28;20066;-76
2022/08/29 09:31:32;;;;;;;8.32;4.88;;;;;;;28.77;50.96;96535.19;5087090;28;20036;-76
2022/08/29 09:34:07;;;;;;;8.10;4.47;;;;;;;30.17;47.08;96522.09;5086817;28;20431;-76
2022/08/29 09:36:51;;;;;;;10.40;4.80;;;;;;;30.42;45.80;96518.50;5089802;28;20028;-77
2022/08/29 09:39:22;;;;;;;7.32;4.30;;;;;;;30.15;47.49;96521.56;5087931;28;20821;-75
2022/08/29 09:42:11;;;;;;;6.75;4.35;;;;;;;29.98;47.37;96527.31;5090257;28;20031;-78
2022/08/29 09:44:39;;;;;;;8.88;5.30;;;;;;;28.47;50.54;96539.47;5082414;28;20051;-77
2022/08/29 09:47:22;;;;;;;9.13;5.40;;;;;;;28.37;53.46;96537.50;5089341;28;21233;-76
2022/08/29 09:50:17;;;;;;;8.43;4.90;;;;;;;28.08;53.43;96539.00;5087200;28;20040;-76
2022/08/29 09:53:01;;;;;;;8.40;4.93;;;;;;;29.52;48.49;96540.94;5085118;28;20395;-76
2022/08/29 09:55:41;;;;;;;7.55;4.28;;;;;;;29.92;44.88;96525.72;5083661;28;20037;-76
2022/08/29 09:58:17;;;;;;;7.45;4.63;;;;;;;30.66;47.95;96529.50;5088050;28;20076;-76
2022/08/29 10:01:08;;;;;;;10.00;4.78;;;;;;;30.98;43.34;96526.31;5088300;28;20047;-77
2022/08/29 10:03:42;;;;;;;9.35;4.55;;;;;;;31.02;43.34;96524.69;5084254;28;20048;-78
2022/08/29 10:06:31;;;;;;;8.57;5.15;;;;;;;28.03;49.48;96531.66;5087100;28;20396;-76
2022/08/29 10:09:12;;;;;;;8.43;4.75;;;;;;;28.39;50.52;96529.94;5083435;28;20028;-78
2022/08/29 10:11:49;;;;;;;7.05;4.30;;;;;;;28.68;49.48;96534.91;5085711;28;20039;-76
2022/08/29 10:14:55;;;;;;;9.02;4.63;;;;;;;28.47;49.66;96534.06;5087027;28;20104;-76
2022/08/29 10:20:15;;;;;;;9.20;4.45;;;;;;;28.11;47.34;96533.06;5090472;28;20032;-77
2022/08/29 10:22:51;;;;;;;8.13;4.30;;;;;;;30.29;39.24;96531.59;5084952;28;20099;-76
2022/08/29 10:25:27;;;;;;;8.00;4.72;;;;;;;30.91;40.48;96523.94;5069892;28;20040;-76
2022/08/29 10:28:22;;;;;;;7.05;4.90;;;;;;;29.74;43.49;96527.13;5088128;28;20565;-76
2022/08/29 10:31:02;;;;;;;6.78;3.63;;;;;;;30.14;40.50;96526.19;5068343;28;20057;-77
2022/08/29 10:34:00;;;;;;;6.22;4.00;;;;;;;30.26;41.42;96529.44;5090444;28;20038;-76
2022/08/29 10:36:38;;;;;;;6.85;4.57;;;;;;;31.20;40.47;96528.63;5088228;28;20028;-76
2022/08/29 10:39:48;;;;;;;6.75;4.45;;;;;;;30.17;41.94;96532.97;5063394;28;20063;-78
2022/08/29 10:42:18;;;;;;;7.72;4.93;;;;;;;29.78;43.98;96531.72;5049556;28;20395;-80
2022/08/29 10:45:06;;;;;;;5.95;4.32;;;;;;;29.91;43.83;96524.09;5084905;28;20111;-79
2022/08/29 10:47:40;;;;;;;5.88;3.72;;;;;;;30.24;39.39;96528.88;5099682;28;20041;-79
2022/08/29 10:50:27;;;;;;;6.50;3.88;;;;;;;28.92;40.83;96537.13;5085955;28;20036;-78
2022/08/29 10:53:13;;;;;;;6.00;4.28;;;;;;;28.89;42.00;96535.75;5093931;28;20170;-82
2022/08/29 10:55:48;;;;;;;7.05;4.20;;;;;;;28.62;44.82;96538.69;5082937;28;20059;-77
2022/08/29 10:58:25;;;;;;;6.68;4.05;;;;;;;28.44;43.50;96537.28;5088306;28;20081;-77
2022/08/29 11:01:09;;;;;;;6.15;3.75;;;;;;;28.11;45.28;96536.59;5086150;28;20107;-83
2022/08/29 11:03:45;;;;;;;6.32;3.90;;;;;;;27.56;46.69;96520.84;5085442;28;20040;-83
2022/08/29 11:06:30;;;;;;;6.65;3.53;;;;;;;27.56;46.50;96523.53;5075066;28;20031;-77
2022/08/29 11:09:50;;;;;;;7.13;4.03;;;;;;;27.11;43.54;96524.78;5097196;28;20028;-77
2022/08/29 11:12:32;;;;;;;8.40;4.20;;;;;;;27.21;44.93;96522.22;5049466;28;20309;-77
2022/08/29 11:15:13;;;;;;;10.10;4.30;;;;;;;27.86;42.83;96523.75;5085025;28;20771;-76
2022/08/29 11:17:57;;;;;;;6.93;4.15;;;;;;;28.63;44.58;96526.78;5084823;28;20790;-76
2022/08/29 11:20:34;;;;;;;6.88;4.25;;;;;;;28.97;45.08;96521.69;5083998;28;20032;-76
2022/08/29 11:23:12;;;;;;;7.88;4.25;;;;;;;29.18;44.69;96521.75;5086533;28;20172;-76
2022/08/29 11:25:40;;;;;;;6.57;4.45;;;;;;;26.94;53.47;96516.81;5059036;28;20028;-78
2022/08/29 11:28:13;;;;;;;7.25;4.20;;;;;;;26.46;58.50;96513.06;5085812;28;20077;-76
2022/08/29 11:31:05;;;;;;;7.72;4.97;;;;;;;28.09;51.52;96506.28;5089544;28;20054;-76
2022/08/29 11:33:40;;;;;;;7.43;4.60;;;;;;;28.09;49.81;96510.88;5089333;28;20496;-75
2022/08/29 11:36:35;;;;;;;7.32;4.38;;;;;;;29.46;45.01;96512.22;5086223;28;20044;-76